METAR Data
IDs: Format: Raw Decoded Include TAF

Data at: 1722 UTC 21 Sep 2018

KCNW 211555Z 18010KT 7SM OVC012 27/25 A2997
KCNW 211455Z 17007KT 7SM BR OVC008 25/25 A2997
KCNW 211155Z 15006KT 5SM BR OVC004 25/25 A2994
KCNW 210355Z 11007KT 10SM RA BKN090 23/22 A2996
KCNW 210255Z 14007KT 10SM -RA SCT040 23/22 A2996
KCNW 210155Z 14007KT 10SM -RA BKN030 23/22 A2996
KCNW 210055Z 14007G27KT 10SM BKN030 27/20 A2994
KCNW 202355Z 14007KT 10SM SCT030 27/21 A2990
KCNW 202255Z 16010KT 10SM SCT030 28/22 A2991
KCNW 202155Z 16010KT 10SM SCT046 28/22 A2990
KCNW 202055Z 16010G18KT 10SM SCT046 30/20 A2990
KCNW 201955Z 16010G18KT 10SM SCT046 32/19 A2992
KCNW 201855Z 13005KT 7SM SCT040 29/24 A2994
KCNW 201755Z 20006KT 7SM SCT024 BKN032 29/24 A2999
KCNW 201655Z 20006KT 7SM SCT024 BKN032 29/24 A2999
KCNW 201255Z 12004KT 10SM OVC010 25/23 A2996
KCNW 201155Z 12004KT 10SM SKC 23/23 A2994